Latest Weather Observations for Milingimbi

IDD60801

Issued at 8:05 pm CST Thursday 2 October 2014 (issued every 30 minutes, with the page automatically refreshed every 10 minutes)

About weather observations | Map of weather stations | Latest weather observations for NT | Other Formats
Station Details ID: 014404 Name: MILINGIMBI AIRPORT Lat: -12.09 Lon: 134.89 Height: 15.0 m
Data from the previous 72 hours. | See also: Recent months at Milingimbi
Date/Time
CST
Temp
°C
App
Temp
°C
Dew
Point
Rel
Hum
%
Delta-T
°C
Wind Press
QNH
hPa
Press
MSL
hPa
Rain
since 9 am
mm
Dir
 
Spd
km/h
Gust
km/h
Spd
kts
Gust
kts
02/08:00pm 25.8 28.7 21.0 75 3.2 NE 7 11 4 6 1011.8 - 0.0
02/07:30pm 25.5 29.3 20.1 72 3.5 NE 0 0 0 0 1011.5 - 0.0
02/07:00pm 26.3 29.4 20.2 69 4.0 NE 4 7 2 4 1011.0 - 0.0
02/06:30pm 27.0 29.0 19.9 65 4.6 NE 9 15 5 8 1010.6 - 0.0
02/06:00pm 27.8 29.7 19.8 61 5.2 NNE 9 17 5 9 1010.3 1010.2 0.0
02/05:30pm 27.8 29.9 20.1 63 5.0 N 9 19 5 10 1010.0 - 0.0
02/05:00pm 29.0 31.0 20.7 61 5.5 N 11 17 6 9 1009.8 - 0.0
02/04:30pm 28.8 29.9 19.7 58 5.9 N 13 20 7 11 1009.8 - 0.0
02/04:00pm 28.8 29.5 19.7 58 5.9 N 15 20 8 11 1009.7 - 0.0
02/03:30pm 29.6 30.7 19.6 55 6.5 N 13 22 7 12 1009.6 - 0.0
02/03:00pm 29.7 30.7 20.3 57 6.2 N 15 20 8 11 1009.7 1009.6 0.0
02/02:30pm 30.3 31.4 19.6 52 7.0 N 13 20 7 11 1010.1 - 0.0
02/02:00pm 31.2 32.8 19.9 51 7.5 NNE 11 17 6 9 1010.5 - 0.0
02/01:30pm 30.7 31.1 18.1 47 8.1 ENE 13 20 7 11 1011.2 - 0.0
02/01:00pm 30.2 30.4 17.6 46 8.0 ENE 13 22 7 12 1011.9 - 0.0
02/12:30pm 29.8 30.5 18.9 52 7.1 NE 13 20 7 11 1012.6 - 0.0
02/12:00pm 29.6 30.6 20.2 57 6.2 ENE 15 24 8 13 1013.2 1013.1 0.0
02/11:30am 29.3 29.5 19.3 55 6.5 ENE 17 24 9 13 1013.6 - 0.0
02/11:00am 29.5 29.0 18.6 52 7.0 E 19 28 10 15 1013.9 - 0.0
02/10:30am 28.7 28.6 18.8 55 6.4 ENE 17 24 9 13 1014.1 - 0.0
02/10:00am 28.4 28.3 17.9 53 6.7 ENE 15 26 8 14 1014.3 - 0.0
02/09:30am 29.3 29.3 19.0 53 6.7 ENE 17 24 9 13 1014.3 - 0.0
02/09:00am 27.9 27.9 18.0 55 6.3 ENE 15 24 8 13 1014.1 1014.0 0.0
02/08:30am 27.6 28.0 18.9 59 5.6 ENE 15 28 8 15 1014.0 - 0.0
02/08:00am 27.2 28.4 19.0 61 5.3 ENE 11 19 6 10 1013.7 - 0.0
02/07:30am 26.1 27.4 19.2 65 4.4 NE 11 19 6 10 1013.3 - 0.0
02/07:00am 25.1 26.8 20.1 74 3.2 ENE 11 19 6 10 1013.0 - 0.0
02/06:30am 24.3 26.6 20.6 80 2.4 ENE 9 17 5 9 1012.5 - 0.0
02/06:00am 23.6 26.4 20.5 83 2.0 E 6 11 3 6 1012.5 1012.4 0.0
02/05:30am 23.7 26.3 20.4 82 2.1 E 7 11 4 6 1012.3 - 0.0
02/05:00am 23.6 26.1 20.3 82 2.1 E 7 11 4 6 1011.9 - 0.0
02/04:30am 23.7 26.2 20.2 81 2.3 E 7 11 4 6 1011.8 - 0.0
02/04:00am 23.6 26.1 20.3 82 2.1 E 7 15 4 8 1011.3 - 0.0
02/03:30am 23.8 26.3 20.3 81 2.3 E 7 13 4 7 1011.2 - 0.0
02/03:00am 24.2 26.4 20.5 80 2.4 E 9 15 5 8 1011.2 1011.1 0.0
02/02:30am 24.3 26.1 20.4 79 2.5 E 11 22 6 12 1011.5 - 0.0
02/02:00am 24.3 25.9 20.0 77 2.8 E 11 15 6 8 1011.5 - 0.0
02/01:30am 24.6 26.2 19.9 75 3.0 E 11 19 6 10 1011.9 - 0.0
02/01:00am 24.9 26.0 19.7 73 3.4 E 13 20 7 11 1012.2 - 0.0
02/12:30am 25.4 25.2 19.3 69 3.9 ESE 19 28 10 15 1012.9 - 0.0
02/12:00am 25.7 27.5 20.3 72 3.5 E 11 17 6 9 1013.0 1012.9 0.0
 
Date/Time
CST
Temp
°C
App
Temp
°C
Dew
Point
Rel
Hum
%
Delta-T
°C
Wind Press
QNH
hPa
Press
MSL
hPa
Rain
since 9 am
mm
Dir
 
Spd
km/h
Gust
km/h
Spd
kts
Gust
kts
01/11:30pm 25.5 28.9 22.0 81 2.3 ENE 7 11 4 6 1013.2 - 0.0
01/11:00pm 25.5 28.9 22.0 81 2.3 NE 7 11 4 6 1013.1 - 0.0
01/10:30pm 25.6 29.1 22.1 81 2.3 NE 7 13 4 7 1013.2 - 0.0
01/10:00pm 25.7 28.6 21.8 79 2.6 NE 9 15 5 8 1013.2 - 0.0
01/09:30pm 25.8 29.0 21.7 78 2.7 NE 7 15 4 8 1012.8 - 0.0
01/09:00pm 26.1 28.9 21.5 76 3.1 ENE 9 17 5 9 1012.6 1012.5 0.0
01/08:30pm 26.1 28.9 21.5 76 3.1 NE 9 13 5 7 1012.3 - 0.0
01/08:00pm 26.1 29.1 21.3 75 3.2 ENE 7 13 4 7 1011.9 - 0.0
01/07:30pm 26.2 29.4 21.2 74 3.3 NE 6 9 3 5 1011.4 - 0.0
01/07:00pm 26.6 29.7 21.4 73 3.5 NNE 7 11 4 6 1011.0 - 0.0
01/06:30pm 26.8 29.7 21.1 71 3.8 N 7 11 4 6 1010.6 - 0.0
01/06:00pm 27.4 29.6 20.5 66 4.5 N 9 17 5 9 1010.3 1010.2 0.0
01/05:30pm 27.8 30.1 20.6 65 4.7 N 9 15 5 8 1010.1 - 0.0
01/05:00pm 28.3 30.5 21.1 65 4.8 N 11 20 6 11 1010.0 - 0.0
01/04:30pm 29.2 30.7 20.6 59 5.7 N 13 22 7 12 1010.0 - 0.0
01/04:00pm 29.7 30.8 20.5 57 6.1 N 15 22 8 12 1010.0 - 0.0
01/03:30pm 29.7 30.8 20.5 57 6.1 N 15 26 8 14 1010.2 - 0.0
01/03:00pm 30.7 31.8 19.7 52 7.2 NNE 13 20 7 11 1010.3 1010.2 0.0
01/02:30pm 31.1 30.9 16.7 42 9.1 ENE 13 26 7 14 1010.7 - 0.0
01/02:00pm 31.4 30.1 16.9 41 9.2 ENE 19 30 10 16 1011.0 - 0.0
01/01:30pm 30.0 28.8 17.5 47 7.9 NE 20 30 11 16 1011.5 - 0.0
01/01:00pm 30.8 30.2 17.5 45 8.5 ENE 17 26 9 14 1012.3 - 0.0
01/12:30pm 30.3 30.1 17.7 46 8.0 ENE 15 28 8 15 1012.9 - 0.0
01/12:00pm 30.7 30.2 19.1 50 7.6 E 20 32 11 17 1013.5 1013.4 0.0
01/11:30am 30.4 29.4 17.5 46 8.2 ESE 19 28 10 15 1014.0 - 0.0
01/11:00am 29.8 29.3 17.9 48 7.6 E 17 26 9 14 1014.4 - 0.0
01/10:30am 29.5 29.0 17.7 49 7.5 E 17 28 9 15 1014.7 - 0.0
01/10:00am 29.6 29.6 18.1 50 7.4 E 15 26 8 14 1014.8 - 0.0
01/09:30am 28.4 27.4 17.6 52 6.8 ENE 19 30 10 16 1014.8 - 0.0
01/09:00am 28.2 27.9 19.1 57 5.9 E 19 30 10 16 1014.8 1014.7 0.0
01/08:30am 28.1 27.9 19.3 58 5.7 ESE 19 28 10 15 1014.4 - 0.0
01/08:00am 27.7 28.1 19.0 59 5.6 ESE 15 26 8 14 1014.0 - 0.0
01/07:30am 26.0 27.1 19.6 68 4.1 E 13 19 7 10 1013.8 - 0.0
01/07:00am 24.7 26.0 20.2 76 2.9 E 13 20 7 11 1013.3 - 0.0
01/06:30am 23.8 25.3 19.7 78 2.6 E 11 17 6 9 1013.0 - 0.0
01/06:00am 23.9 25.3 19.6 77 2.8 E 11 22 6 12 1012.8 1012.7 0.0
01/05:30am 23.9 24.5 19.4 76 2.9 E 15 22 8 12 1012.8 - 0.0
01/05:00am 24.0 24.9 19.3 75 3.0 E 13 24 7 13 1012.7 - 0.0
01/04:30am 24.0 24.8 19.1 74 3.1 ESE 13 22 7 12 1012.6 - 0.0
01/04:00am 24.0 24.7 18.9 73 3.2 E 13 20 7 11 1012.6 - 0.0
01/03:30am 24.4 25.2 19.0 72 3.4 E 13 20 7 11 1012.7 - 0.0
01/03:00am 24.4 24.8 19.0 72 3.4 ESE 15 24 8 13 1012.7 1012.6 0.0
01/02:30am 24.5 24.6 19.1 72 3.4 ESE 17 28 9 15 1012.7 - 0.0
01/02:00am 24.6 24.6 19.0 71 3.6 ESE 17 24 9 13 1012.9 - 0.0
01/01:30am 24.6 25.3 18.8 70 3.7 ESE 13 20 7 11 1013.2 - 0.0
01/01:00am 24.9 24.8 18.8 69 3.9 ESE 17 24 9 13 1013.3 - 0.0
01/12:30am 25.2 25.2 18.9 68 4.0 ESE 17 26 9 14 1013.6 - 0.0
01/12:00am 25.7 24.9 18.4 64 4.6 ESE 20 32 11 17 1013.8 1013.7 0.0
 
Date/Time
CST
Temp
°C
App
Temp
°C
Dew
Point
Rel
Hum
%
Delta-T
°C
Wind Press
QNH
hPa
Press
MSL
hPa
Rain
since 9 am
mm
Dir
 
Spd
km/h
Gust
km/h
Spd
kts
Gust
kts
30/11:30pm 26.1 25.9 17.7 60 5.3 E 15 26 8 14 1013.8 - 0.0
30/11:00pm 26.3 26.4 17.4 58 5.6 E 13 19 7 10 1013.7 - 0.0
30/10:30pm 25.9 27.4 18.1 62 4.9 ESE 7 9 4 5 1013.5 - 0.0
30/10:00pm 26.7 27.7 17.7 57 5.7 ESE 9 17 5 9 1013.3 - 0.0
30/09:30pm 26.9 26.9 18.2 59 5.5 ESE 15 24 8 13 1013.3 - 0.0
30/09:00pm 26.3 27.9 19.9 68 4.2 E 11 17 6 9 1013.3 1013.2 0.0
30/08:30pm 26.6 27.3 19.7 66 4.5 E 15 26 8 14 1013.0 - 0.0
30/08:00pm 26.6 27.7 19.7 66 4.5 ENE 13 22 7 12 1012.7 - 0.0
30/07:30pm 26.6 27.5 20.0 67 4.3 ENE 15 24 8 13 1012.2 - 0.0
30/07:00pm 26.7 27.5 19.8 66 4.5 ENE 15 26 8 14 1011.9 - 0.0
30/06:30pm 26.7 27.7 20.3 68 4.2 NE 15 30 8 16 1011.5 - 0.0
30/06:00pm 27.1 27.9 19.9 64 4.7 ENE 15 28 8 15 1011.2 1011.1 0.0
30/05:30pm 28.0 28.5 19.2 58 5.7 ENE 15 26 8 14 1010.9 - 0.0
30/05:00pm 28.6 28.9 19.5 58 5.9 NE 17 26 9 14 1011.0 - 0.0
30/04:30pm 29.4 30.4 20.3 58 6.0 NNE 15 22 8 12 1010.9 - 0.0
30/04:00pm 29.6 30.0 19.9 56 6.4 NNE 17 28 9 15 1011.0 - 0.0
30/03:30pm 29.9 30.6 20.5 57 6.2 NNE 17 32 9 17 1011.1 - 0.0
30/03:00pm 30.2 30.6 19.9 54 6.8 NE 17 30 9 16 1011.3 1011.2 0.0
30/02:30pm 30.4 31.0 19.4 51 7.2 ENE 15 28 8 15 1011.5 - 0.0
30/02:00pm 30.1 30.1 19.8 54 6.8 ENE 19 33 10 18 1011.8 - 0.0
30/01:30pm 29.8 30.0 20.1 56 6.4 NE 19 28 10 15 1012.2 - 0.0
30/01:00pm 29.9 29.9 19.0 52 7.1 NE 17 30 9 16 1012.6 - 0.0
30/12:30pm 30.3 31.1 19.9 53 6.8 NE 15 28 8 15 1013.2 - 0.0
30/12:00pm 30.9 31.7 19.9 52 7.2 ENE 15 26 8 14 1013.7 1013.6 0.0
30/11:30am 29.4 29.1 18.2 51 7.2 ENE 17 35 9 19 1014.1 - 0.0
30/11:00am 29.3 29.4 19.9 57 6.2 ENE 19 30 10 16 1014.7 - 0.0
30/10:30am 28.7 28.7 20.2 60 5.6 ENE 20 35 11 19 1014.8 - 0.0
30/10:00am 29.2 29.5 19.5 56 6.3 E 17 24 9 13 1015.1 - 0.0
30/09:30am 28.2 29.9 21.0 65 4.8 E 13 22 7 12 1015.1 - 0.0
30/09:00am 27.2 28.9 21.0 69 4.1 E 13 20 7 11 1015.0 1014.9 0.0
30/08:30am 27.4 29.7 21.4 70 4.0 E 11 17 6 9 1014.9 - 0.0
30/08:00am 26.4 28.6 21.2 73 3.4 ESE 11 15 6 8 1014.6 - 0.0
30/07:30am 24.4 26.3 19.7 75 3.0 SE 9 13 5 7 1014.3 - 0.0
30/07:00am 23.2 25.1 19.8 81 2.2 SE 9 11 5 6 1014.2 - 0.0
30/06:30am 22.1 24.3 19.6 86 1.6 SSE 7 9 4 5 1014.0 - 0.0
30/06:00am 22.1 24.3 19.6 86 1.6 SSE 7 9 4 5 1013.8 1013.7 0.0
30/05:30am 22.4 24.6 19.6 84 1.8 SSE 7 11 4 6 1013.4 - 0.0
30/05:00am 22.8 25.0 19.6 82 2.0 SE 7 11 4 6 1013.1 - 0.0
30/04:30am 23.6 25.5 19.7 79 2.5 SE 9 13 5 7 1012.8 - 0.0
30/04:00am 24.3 26.3 20.0 77 2.8 E 9 13 5 7 1012.5 - 0.0
30/03:30am 24.5 26.5 20.0 76 2.9 E 9 13 5 7 1012.4 - 0.0
30/03:00am 24.6 26.6 19.9 75 3.0 E 9 17 5 9 1012.4 1012.3 0.0
30/02:30am 24.9 26.4 19.7 73 3.4 E 11 17 6 9 1012.4 - 0.0
30/02:00am 24.9 26.5 19.9 74 3.2 E 11 15 6 8 1012.5 - 0.0
30/01:30am 25.1 26.7 19.9 73 3.4 E 11 20 6 11 1012.7 - 0.0
30/01:00am 25.4 26.3 20.0 72 3.5 E 15 26 8 14 1013.1 - 0.0
30/12:30am 25.8 27.2 21.0 75 3.2 E 15 26 8 14 1013.3 - 0.0
30/12:00am 25.9 27.2 20.9 74 3.3 E 15 26 8 14 1013.3 1013.2 0.0
 
Date/Time
CST
Temp
°C
App
Temp
°C
Dew
Point
Rel
Hum
%
Delta-T
°C
Wind Press
QNH
hPa
Press
MSL
hPa
Rain
since 9 am
mm
Dir
 
Spd
km/h
Gust
km/h
Spd
kts
Gust
kts
29/11:30pm 26.1 28.2 21.7 77 2.9 E 13 24 7 13 1013.4 - 0.0
29/11:00pm 26.2 27.9 21.6 76 3.1 E 15 24 8 13 1013.7 - 0.0
29/10:30pm 26.2 28.9 22.1 78 2.7 E 11 19 6 10 1013.5 - 0.0
29/10:00pm 26.4 28.7 22.0 77 2.9 E 13 22 7 12 1013.4 - 0.0
29/09:30pm 26.5 28.7 21.9 76 3.1 ENE 13 22 7 12 1013.2 - 0.0
29/09:00pm 26.8 28.6 21.8 74 3.3 ENE 15 20 8 11 1012.6 1012.5 0.0
29/08:30pm 26.9 28.9 21.6 72 3.5 ENE 13 20 7 11 1012.3 - 0.0

Other Formats:

Comma delimited format used in spreadsheet applications
http://www.bom.gov.au/fwo/IDD60801/IDD60801.94140.axf

JavaScript Object Notation format (JSON) in row-major order
http://www.bom.gov.au/fwo/IDD60801/IDD60801.94140.json